createdAt,value
2022-12-23T00:01:46.179Z,83.24
2022-12-23T00:04:18.817Z,82.98
2022-12-23T00:06:51.652Z,82.86
2022-12-23T00:09:28.340Z,82.94
2022-12-23T00:12:18.301Z,82.69
2022-12-23T00:15:09.127Z,82.55
2022-12-23T00:17:45.457Z,82.17
2022-12-23T00:20:18.821Z,82.02
2022-12-23T00:23:06.432Z,82.12
2022-12-23T00:25:45.001Z,82.05
2022-12-23T00:28:20.607Z,81.58
2022-12-23T00:30:55.071Z,81.13
2022-12-23T00:33:29.456Z,80.30
2022-12-23T00:36:02.099Z,79.93
2022-12-23T00:38:51.983Z,79.44
2022-12-23T00:41:42.278Z,78.97
2022-12-23T00:44:14.848Z,78.82
2022-12-23T00:46:47.280Z,78.61
2022-12-23T00:49:38.587Z,78.53
2022-12-23T00:52:13.047Z,78.28
2022-12-23T00:54:45.464Z,78.10
2022-12-23T00:57:17.921Z,77.78
2022-12-23T00:59:50.324Z,78.07
2022-12-23T01:02:40.142Z,77.92
2022-12-23T01:08:23.586Z,78.33
2022-12-23T01:10:56.037Z,78.41
2022-12-23T01:13:28.443Z,78.41
2022-12-23T01:16:04.582Z,78.68
2022-12-23T01:18:38.767Z,79.04
2022-12-23T01:23:09.783Z,80.08
2022-12-23T01:25:42.544Z,79.97
2022-12-23T01:28:15.534Z,80.59
2022-12-23T01:30:47.846Z,80.69
2022-12-23T01:33:20.569Z,80.65
2022-12-23T01:35:53.258Z,80.66
2022-12-23T01:38:26.325Z,80.76
2022-12-23T01:40:59.014Z,80.97
2022-12-23T01:46:28.173Z,81.52
2022-12-23T01:49:00.664Z,82.08
2022-12-23T01:51:33.660Z,82.11
2022-12-23T01:54:06.666Z,82.21
2022-12-23T01:56:41.519Z,82.81
2022-12-23T01:59:36.991Z,82.74
2022-12-23T02:02:25.294Z,82.83
2022-12-23T02:04:58.520Z,82.87
2022-12-23T02:07:48.952Z,83.18
2022-12-23T02:10:22.284Z,83.47
2022-12-23T02:13:02.211Z,83.66
2022-12-23T02:15:57.272Z,83.74
2022-12-23T02:18:48.639Z,83.80
2022-12-23T02:21:46.039Z,83.98
2022-12-23T02:24:45.676Z,83.88
2022-12-23T02:27:24.671Z,83.19
2022-12-23T02:30:36.959Z,83.24
2022-12-23T02:33:21.053Z,83.41
2022-12-23T02:36:05.399Z,83.21
2022-12-23T02:38:47.136Z,83.27
2022-12-23T02:41:29.237Z,82.93
2022-12-23T02:44:10.501Z,83.18
2022-12-23T02:46:48.325Z,82.98
2022-12-23T02:49:26.527Z,82.64
2022-12-23T02:52:03.028Z,82.74
2022-12-23T02:54:40.221Z,82.74
2022-12-23T02:57:18.150Z,82.93
2022-12-23T02:59:53.853Z,83.06
2022-12-23T03:02:26.849Z,83.08
2022-12-23T03:05:01.165Z,83.33
2022-12-23T03:07:39.911Z,83.33
2022-12-23T03:10:20.386Z,83.32
2022-12-23T03:13:02.754Z,83.37
2022-12-23T03:15:48.252Z,84.19
2022-12-23T03:18:28.984Z,84.01
2022-12-23T03:21:08.269Z,83.96
2022-12-23T03:23:50.386Z,83.48
2022-12-23T03:26:32.194Z,83.15
2022-12-23T03:29:13.647Z,83.14
2022-12-23T03:31:48.705Z,82.83
2022-12-23T03:34:26.027Z,82.57
2022-12-23T03:37:02.839Z,82.56
2022-12-23T03:39:40.456Z,82.57
2022-12-23T03:42:18.763Z,82.41
2022-12-23T03:45:28.019Z,82.40
2022-12-23T03:47:51.776Z,82.52
2022-12-23T03:50:26.639Z,82.43
2022-12-23T03:52:59.874Z,82.47
2022-12-23T03:55:37.099Z,82.46
2022-12-23T03:58:15.722Z,82.25
2022-12-23T04:00:57.729Z,82.29
2022-12-23T04:03:38.763Z,82.49
2022-12-23T04:06:17.116Z,82.71
2022-12-23T04:08:52.564Z,82.72
2022-12-23T04:11:25.161Z,82.92
2022-12-23T04:13:57.609Z,83.05
2022-12-23T04:16:30.859Z,83.19
2022-12-23T04:19:03.249Z,83.14
2022-12-23T04:21:35.698Z,82.95
2022-12-23T04:24:09.243Z,82.90
2022-12-23T04:26:41.696Z,82.94
2022-12-23T04:29:14.139Z,82.78
2022-12-23T04:31:46.667Z,82.59
2022-12-23T04:34:19.472Z,82.76
2022-12-23T04:36:51.950Z,82.41
2022-12-23T04:39:24.582Z,82.14
2022-12-23T04:41:57.224Z,82.05
2022-12-23T04:44:29.682Z,82.07
2022-12-23T04:47:02.593Z,82.01
2022-12-23T04:49:35.337Z,81.82
2022-12-23T04:52:08.638Z,81.74
2022-12-23T04:54:46.014Z,81.75
2022-12-23T04:57:18.808Z,81.65
2022-12-23T04:59:51.275Z,81.70
2022-12-23T05:02:25.953Z,81.85
2022-12-23T05:04:58.693Z,81.42
2022-12-23T05:07:31.362Z,81.41
2022-12-23T05:10:04.099Z,81.19
2022-12-23T05:12:36.604Z,81.20
2022-12-23T05:15:11.137Z,81.24
2022-12-23T05:17:43.837Z,81.31
2022-12-23T05:20:16.562Z,81.37
2022-12-23T05:22:49.009Z,81.73
2022-12-23T05:25:21.490Z,81.71
2022-12-23T05:27:56.944Z,81.85
2022-12-23T05:30:29.654Z,81.92
2022-12-23T05:33:02.483Z,82.16
2022-12-23T05:35:35.183Z,82.10
2022-12-23T05:38:07.924Z,82.20
2022-12-23T05:40:40.383Z,82.00
2022-12-23T05:43:13.082Z,82.10
2022-12-23T05:45:45.889Z,81.83
2022-12-23T05:48:18.543Z,81.88
2022-12-23T05:50:53.983Z,81.78
2022-12-23T05:53:34.080Z,81.76
2022-12-23T05:56:09.165Z,81.81
2022-12-23T05:58:41.635Z,81.75
2022-12-23T06:01:14.021Z,81.92
2022-12-23T06:03:46.832Z,81.98
2022-12-23T06:06:19.700Z,82.20
2022-12-23T06:08:55.871Z,82.17
2022-12-23T06:11:31.767Z,82.18
2022-12-23T06:14:04.217Z,82.14
2022-12-23T06:16:37.091Z,82.23
2022-12-23T06:19:09.746Z,82.22
2022-12-23T06:21:42.135Z,82.13
2022-12-23T06:24:15.072Z,82.00
2022-12-23T06:26:49.756Z,81.93
2022-12-23T06:29:26.516Z,81.73
2022-12-23T06:31:59.868Z,81.61
2022-12-23T06:34:32.709Z,81.39
2022-12-23T06:37:06.277Z,81.07
2022-12-23T06:39:38.761Z,80.74
2022-12-23T06:42:11.309Z,80.51
2022-12-23T06:44:43.680Z,80.45
2022-12-23T06:47:16.467Z,80.53
2022-12-23T06:49:49.241Z,80.46
2022-12-23T06:52:23.166Z,80.57
2022-12-23T06:54:56.104Z,80.51
2022-12-23T06:57:29.785Z,80.34
2022-12-23T07:00:02.200Z,80.22
2022-12-23T07:02:35.043Z,80.29
2022-12-23T07:05:08.241Z,80.36
2022-12-23T07:07:40.798Z,80.55
2022-12-23T07:10:13.559Z,80.69
2022-12-23T07:12:50.723Z,80.69
2022-12-23T07:15:23.411Z,80.76
2022-12-23T07:17:57.212Z,80.76
2022-12-23T07:20:29.669Z,80.70
2022-12-23T07:23:02.810Z,80.77
2022-12-23T07:25:35.342Z,80.64
2022-12-23T07:28:08.052Z,80.81
2022-12-23T07:30:40.578Z,80.86
2022-12-23T07:33:13.879Z,80.74
2022-12-23T07:35:46.776Z,81.00
2022-12-23T07:38:19.449Z,81.04
2022-12-23T07:40:52.852Z,81.24
2022-12-23T07:43:25.603Z,81.29
2022-12-23T07:46:00.833Z,81.55
2022-12-23T07:48:33.954Z,81.70
2022-12-23T07:51:07.078Z,81.76
2022-12-23T07:53:39.486Z,81.96
2022-12-23T07:56:12.291Z,82.12
2022-12-23T07:58:44.880Z,82.15
2022-12-23T08:01:17.619Z,82.22
2022-12-23T08:03:50.607Z,82.22
2022-12-23T08:06:23.205Z,82.29
2022-12-23T08:08:55.845Z,82.77
2022-12-23T08:11:28.395Z,83.15
2022-12-23T08:14:00.859Z,83.61
2022-12-23T08:16:39.565Z,83.77
2022-12-23T08:19:16.867Z,84.42
2022-12-23T08:21:52.028Z,84.37
2022-12-23T08:24:28.887Z,84.47
2022-12-23T08:27:12.161Z,84.54
2022-12-23T08:29:53.135Z,84.41
2022-12-23T08:32:32.067Z,83.95
2022-12-23T08:35:09.333Z,83.90
2022-12-23T08:37:48.952Z,84.10
2022-12-23T08:40:32.412Z,83.97
2022-12-23T08:43:13.349Z,84.05
2022-12-23T08:45:51.151Z,84.25
2022-12-23T08:48:29.406Z,84.48
2022-12-23T08:51:07.925Z,84.39
2022-12-23T08:53:45.163Z,84.62
2022-12-23T08:56:23.424Z,84.43
2022-12-23T08:59:00.672Z,84.50
2022-12-23T09:01:34.794Z,85.08
2022-12-23T09:06:09.698Z,85.05
2022-12-23T09:08:41.193Z,85.37
2022-12-23T09:11:15.465Z,85.90
2022-12-23T09:13:48.551Z,85.91
2022-12-23T09:16:21.496Z,85.85
2022-12-23T09:18:54.072Z,86.02
2022-12-23T09:21:26.719Z,86.30
2022-12-23T09:23:59.223Z,86.56
2022-12-23T09:26:32.724Z,86.67
2022-12-23T09:29:05.476Z,86.70
2022-12-23T09:31:38.263Z,86.61
2022-12-23T09:34:13.140Z,86.95
2022-12-23T09:36:43.971Z,87.02
2022-12-23T09:39:16.882Z,87.72
2022-12-23T09:42:04.090Z,88.16
2022-12-23T09:44:49.179Z,88.05
2022-12-23T09:47:21.277Z,87.66
2022-12-23T09:49:59.281Z,87.59
2022-12-23T09:52:41.813Z,87.74
2022-12-23T09:55:16.375Z,87.81
2022-12-23T09:57:56.811Z,88.05
2022-12-23T10:00:36.469Z,88.67
2022-12-23T10:03:22.035Z,88.81
2022-12-23T10:06:04.132Z,88.56
2022-12-23T10:08:38.977Z,88.78
2022-12-23T10:11:17.409Z,89.57
2022-12-23T10:13:53.622Z,89.35
2022-12-23T10:16:29.525Z,89.55
2022-12-23T10:19:05.259Z,90.28
2022-12-23T10:21:47.165Z,90.58
2022-12-23T10:24:27.020Z,90.47
2022-12-23T10:27:02.329Z,90.43
2022-12-23T10:29:35.771Z,90.85
2022-12-23T10:32:22.875Z,90.99
2022-12-23T10:35:01.154Z,90.76
2022-12-23T10:37:39.314Z,90.64
2022-12-23T10:40:22.680Z,90.26
2022-12-23T10:43:05.745Z,89.65
2022-12-23T10:45:50.040Z,89.60
2022-12-23T10:48:35.180Z,89.33
2022-12-23T10:51:14.322Z,89.77
2022-12-23T10:53:52.550Z,90.15
2022-12-23T10:56:25.386Z,89.95
2022-12-23T10:59:00.592Z,89.85
2022-12-23T11:01:34.019Z,90.16
2022-12-23T11:04:12.896Z,89.84
2022-12-23T11:07:10.835Z,89.53
2022-12-23T11:09:47.046Z,89.43
2022-12-23T11:12:26.049Z,89.11
2022-12-23T11:15:00.318Z,89.30
2022-12-23T11:17:35.280Z,89.02
2022-12-23T11:20:16.547Z,88.87
2022-12-23T11:22:54.419Z,88.51
2022-12-23T11:25:34.089Z,89.07
2022-12-23T11:28:13.266Z,89.32
2022-12-23T11:30:57.392Z,89.31
2022-12-23T11:33:31.703Z,89.71
2022-12-23T11:36:07.868Z,89.34
2022-12-23T11:38:51.532Z,89.27
2022-12-23T11:41:27.658Z,89.29
2022-12-23T11:44:04.939Z,89.04
2022-12-23T11:46:38.298Z,88.66
2022-12-23T11:49:21.265Z,88.66
2022-12-23T11:52:03.806Z,88.59
2022-12-23T11:54:36.853Z,89.21
2022-12-23T11:57:16.898Z,88.91
2022-12-23T11:59:50.945Z,88.73
2022-12-23T12:02:29.364Z,88.90
2022-12-23T12:05:04.424Z,89.30
2022-12-23T12:07:37.593Z,89.25
2022-12-23T12:10:18.637Z,89.32
2022-12-23T12:12:55.221Z,88.47
2022-12-23T12:15:38.378Z,88.32
2022-12-23T12:18:16.247Z,88.53
2022-12-23T12:20:53.689Z,88.89
2022-12-23T12:23:32.403Z,88.75
2022-12-23T12:26:07.667Z,88.90
2022-12-23T12:28:44.289Z,89.04
2022-12-23T12:31:25.610Z,89.05
2022-12-23T12:34:05.183Z,88.72
2022-12-23T12:36:45.343Z,88.77
2022-12-23T12:39:22.292Z,88.77
2022-12-23T12:42:05.486Z,88.72
2022-12-23T12:44:47.019Z,88.42
2022-12-23T12:47:52.824Z,88.51
2022-12-23T12:50:23.617Z,89.15
2022-12-23T12:53:01.504Z,89.26
2022-12-23T12:55:38.657Z,89.18
2022-12-23T12:58:20.120Z,89.14
2022-12-23T13:01:04.192Z,89.19
2022-12-23T13:03:55.702Z,88.96
2022-12-23T13:06:40.708Z,88.92
2022-12-23T13:09:25.864Z,88.71
2022-12-23T13:12:15.875Z,89.14
2022-12-23T13:14:59.365Z,89.28
2022-12-23T13:17:38.668Z,88.65
2022-12-23T13:20:21.813Z,88.19
2022-12-23T13:23:20.887Z,87.65
2022-12-23T13:26:00.130Z,87.46
2022-12-23T13:28:41.814Z,87.62
2022-12-23T13:31:34.063Z,87.44
2022-12-23T13:34:22.613Z,87.02
2022-12-23T13:37:01.713Z,87.00
2022-12-23T13:39:47.267Z,86.82
2022-12-23T13:42:31.402Z,86.83
2022-12-23T13:45:05.059Z,86.46
2022-12-23T13:47:47.680Z,86.53
2022-12-23T13:50:25.566Z,86.55
2022-12-23T13:53:11.832Z,86.49
2022-12-23T13:56:04.366Z,86.07
2022-12-23T13:58:40.513Z,85.78
2022-12-23T14:01:37.266Z,85.67
2022-12-23T14:04:37.645Z,85.73
2022-12-23T14:07:21.739Z,85.40
2022-12-23T14:09:59.176Z,85.45
2022-12-23T14:12:36.861Z,85.17
2022-12-23T14:15:27.715Z,85.36
2022-12-23T14:18:28.320Z,85.06
2022-12-23T14:21:12.728Z,85.02
2022-12-23T14:24:04.502Z,85.01
2022-12-23T14:26:54.849Z,85.49
2022-12-23T14:29:51.416Z,85.50
2022-12-23T14:32:27.970Z,85.31
2022-12-23T14:35:26.297Z,85.49
2022-12-23T14:38:32.036Z,85.58
2022-12-23T14:41:24.252Z,85.42
2022-12-23T14:43:59.599Z,85.28
2022-12-23T14:46:58.340Z,85.32
2022-12-23T14:49:44.065Z,85.29
2022-12-23T14:52:58.232Z,85.65
2022-12-23T14:56:09.726Z,85.69
2022-12-23T14:59:02.101Z,85.91
2022-12-23T15:01:38.287Z,85.60
2022-12-23T15:04:20.410Z,85.88
2022-12-23T15:06:56.578Z,85.91
2022-12-23T15:09:31.756Z,86.10
2022-12-23T15:12:07.804Z,86.36
2022-12-23T15:14:45.659Z,86.39
2022-12-23T15:17:27.864Z,86.06
2022-12-23T15:20:15.957Z,85.93
2022-12-23T15:22:49.557Z,85.62
2022-12-23T15:25:27.489Z,85.57
2022-12-23T15:28:03.311Z,85.69
2022-12-23T15:30:45.910Z,85.46
2022-12-23T15:34:00.509Z,85.41
2022-12-23T15:36:16.340Z,85.11
2022-12-23T15:38:49.717Z,85.04
2022-12-23T15:41:22.710Z,84.91
2022-12-23T15:44:01.926Z,84.75
2022-12-23T15:46:40.147Z,84.72
2022-12-23T15:49:14.248Z,84.58
2022-12-23T15:52:07.217Z,84.42
2022-12-23T15:54:45.997Z,84.29
2022-12-23T15:57:21.900Z,83.81
2022-12-23T15:59:54.982Z,83.68
2022-12-23T16:02:59.670Z,83.62
2022-12-23T16:05:31.051Z,83.17
2022-12-23T16:08:29.634Z,82.88
2022-12-23T16:11:14.917Z,82.66
2022-12-23T16:14:02.166Z,82.51
2022-12-23T16:16:41.653Z,82.36
2022-12-23T16:19:46.833Z,82.18
2022-12-23T16:22:29.298Z,82.15
2022-12-23T16:25:10.088Z,82.30
2022-12-23T16:27:44.888Z,82.48
2022-12-23T16:30:21.231Z,82.46
2022-12-23T16:32:56.316Z,82.31
2022-12-23T16:35:38.827Z,81.85
2022-12-23T16:38:27.646Z,81.68
2022-12-23T16:41:00.105Z,81.50
2022-12-23T16:43:33.775Z,81.50
2022-12-23T16:46:08.380Z,81.61
2022-12-23T16:48:40.911Z,81.70
2022-12-23T16:51:17.059Z,81.52
2022-12-23T16:53:51.082Z,81.46
2022-12-23T16:56:25.586Z,81.31
2022-12-23T16:58:58.016Z,81.24
2022-12-23T17:01:33.318Z,81.25
2022-12-23T17:04:06.040Z,81.05
2022-12-23T17:06:39.737Z,81.17
2022-12-23T17:09:13.806Z,81.19
2022-12-23T17:11:48.186Z,81.22
2022-12-23T17:14:20.732Z,81.12
2022-12-23T17:16:53.746Z,81.34
2022-12-23T17:19:29.056Z,81.23
2022-12-23T17:22:04.474Z,81.36
2022-12-23T17:24:35.800Z,80.94
2022-12-23T17:27:14.926Z,81.10
2022-12-23T17:29:47.497Z,81.19
2022-12-23T17:32:21.607Z,81.25
2022-12-23T17:34:54.061Z,81.30
2022-12-23T17:37:26.793Z,81.22
2022-12-23T17:39:59.356Z,81.27
2022-12-23T17:42:31.983Z,81.33
2022-12-23T17:45:04.862Z,81.38
2022-12-23T17:47:37.460Z,81.61
2022-12-23T17:50:12.937Z,81.81
2022-12-23T17:52:45.629Z,81.79
2022-12-23T17:55:22.262Z,81.43
2022-12-23T17:57:54.905Z,81.47
2022-12-23T18:00:34.132Z,81.27
2022-12-23T18:03:09.492Z,81.18
2022-12-23T18:05:42.058Z,81.21
2022-12-23T18:08:14.853Z,80.97
2022-12-23T18:10:47.931Z,80.94
2022-12-23T18:13:22.475Z,80.68
2022-12-23T18:15:54.932Z,80.75
2022-12-23T18:18:36.809Z,80.64
2022-12-23T18:21:20.118Z,80.95
2022-12-23T18:23:53.373Z,81.18
2022-12-23T18:26:27.542Z,81.28
2022-12-23T18:29:01.597Z,81.45
2022-12-23T18:31:34.200Z,81.27
2022-12-23T18:34:07.729Z,81.20
2022-12-23T18:36:40.585Z,80.99
2022-12-23T18:39:13.284Z,80.90
2022-12-23T18:41:45.745Z,80.96
2022-12-23T18:44:21.166Z,81.11
2022-12-23T18:46:53.835Z,81.17
2022-12-23T18:49:26.404Z,80.73
2022-12-23T18:51:58.933Z,80.75
2022-12-23T18:54:31.642Z,80.80
2022-12-23T18:57:05.011Z,80.62
2022-12-23T18:59:39.060Z,80.80
2022-12-23T19:02:15.408Z,80.66
2022-12-23T19:04:48.047Z,80.65
2022-12-23T19:07:20.782Z,80.72
2022-12-23T19:09:54.194Z,80.69
2022-12-23T19:12:27.304Z,80.74
2022-12-23T19:14:59.749Z,80.71
2022-12-23T19:17:32.252Z,80.82
2022-12-23T19:20:04.891Z,80.66
2022-12-23T19:22:37.497Z,80.80
2022-12-23T19:25:11.687Z,80.78
2022-12-23T19:27:44.951Z,80.89
2022-12-23T19:30:20.071Z,80.81
2022-12-23T19:32:54.085Z,80.85
2022-12-23T19:35:26.936Z,80.80
2022-12-23T19:37:59.495Z,80.88
2022-12-23T19:40:33.284Z,80.85
2022-12-23T19:43:06.226Z,80.93
2022-12-23T19:45:38.709Z,80.99
2022-12-23T19:48:11.183Z,81.17
2022-12-23T19:50:44.076Z,81.09
2022-12-23T19:53:17.003Z,81.08
2022-12-23T19:55:59.174Z,80.85
2022-12-23T19:58:35.609Z,80.68
2022-12-23T20:01:13.702Z,80.79
2022-12-23T20:03:47.236Z,80.67
2022-12-23T20:06:21.778Z,80.74
2022-12-23T20:09:00.051Z,80.64
2022-12-23T20:11:36.613Z,80.64
2022-12-23T20:14:10.098Z,80.57
2022-12-23T20:16:43.535Z,80.50
2022-12-23T20:19:16.155Z,80.59
2022-12-23T20:21:48.521Z,80.54
2022-12-23T20:24:22.259Z,80.55
2022-12-23T20:26:54.983Z,80.44
2022-12-23T20:29:28.160Z,80.46
2022-12-23T20:32:00.656Z,80.55
2022-12-23T20:34:39.139Z,80.48
2022-12-23T20:37:13.374Z,80.71
2022-12-23T20:39:45.881Z,80.79
2022-12-23T20:42:18.599Z,80.71
2022-12-23T20:44:51.891Z,80.69
2022-12-23T20:47:24.270Z,80.60
2022-12-23T20:49:56.833Z,80.58
2022-12-23T20:52:29.640Z,80.82
2022-12-23T20:55:02.886Z,80.83
2022-12-23T20:57:36.014Z,81.07
2022-12-23T21:00:10.680Z,81.14
2022-12-23T21:02:43.263Z,81.21
2022-12-23T21:05:16.038Z,81.35
2022-12-23T21:07:48.700Z,81.39
2022-12-23T21:10:21.343Z,81.47
2022-12-23T21:12:54.470Z,81.45
2022-12-23T21:15:26.872Z,81.27
2022-12-23T21:17:59.318Z,81.32
2022-12-23T21:20:32.086Z,81.29
2022-12-23T21:23:04.501Z,81.09
2022-12-23T21:25:37.014Z,81.09
2022-12-23T21:28:09.339Z,81.02
2022-12-23T21:30:41.847Z,80.91
2022-12-23T21:33:15.436Z,80.91
2022-12-23T21:35:48.593Z,80.97
2022-12-23T21:38:21.741Z,80.87
2022-12-23T21:40:59.776Z,80.80
2022-12-23T21:43:32.681Z,80.64
2022-12-23T21:46:07.009Z,80.53
2022-12-23T21:48:40.373Z,80.59
2022-12-23T21:51:15.811Z,80.61
2022-12-23T21:53:50.477Z,80.72
2022-12-23T21:56:25.177Z,80.69
2022-12-23T21:59:00.315Z,80.80
2022-12-23T22:01:33.339Z,80.71
2022-12-23T22:04:06.590Z,80.74
2022-12-23T22:06:41.398Z,80.58
2022-12-23T22:09:15.688Z,80.51
2022-12-23T22:11:49.149Z,80.57
2022-12-23T22:14:21.905Z,80.49
2022-12-23T22:16:54.617Z,80.41
2022-12-23T22:19:27.329Z,80.47
2022-12-23T22:22:00.877Z,80.52
2022-12-23T22:24:35.619Z,80.33
2022-12-23T22:27:06.783Z,80.21
2022-12-23T22:29:42.358Z,80.22
2022-12-23T22:32:15.518Z,80.32
2022-12-23T22:34:47.922Z,80.44
2022-12-23T22:37:20.691Z,80.48
2022-12-23T22:39:53.563Z,80.48
2022-12-23T22:42:25.986Z,80.34
2022-12-23T22:44:58.559Z,80.30
2022-12-23T22:47:31.164Z,80.17
2022-12-23T22:50:03.695Z,80.23
2022-12-23T22:52:36.393Z,80.09
2022-12-23T22:55:11.332Z,80.24
2022-12-23T22:57:43.788Z,80.44
2022-12-23T23:00:17.730Z,80.37
2022-12-23T23:02:50.424Z,80.53
2022-12-23T23:05:23.613Z,80.54
2022-12-23T23:07:56.009Z,80.71
2022-12-23T23:10:28.711Z,80.67
2022-12-23T23:13:01.473Z,80.58
2022-12-23T23:15:34.736Z,80.92
2022-12-23T23:18:07.548Z,81.00
2022-12-23T23:20:40.310Z,80.99
2022-12-23T23:23:12.910Z,81.03
2022-12-23T23:25:45.636Z,80.84
2022-12-23T23:28:18.188Z,80.80
2022-12-23T23:31:09.735Z,80.71
2022-12-23T23:33:44.078Z,80.77
2022-12-23T23:36:16.559Z,80.65
2022-12-23T23:38:49.148Z,80.55
2022-12-23T23:41:23.529Z,80.59
2022-12-23T23:43:54.728Z,80.40
2022-12-23T23:46:28.001Z,80.34
2022-12-23T23:49:00.568Z,80.44
2022-12-23T23:51:33.295Z,80.49
2022-12-23T23:54:05.898Z,80.26
2022-12-23T23:56:39.644Z,80.49
2022-12-23T23:59:12.238Z,80.29
